M I D A S
Marine Information and Data Acquisition System
Tripno 150 of the Zeeleeuw from 2001-08-21 06:17:17 to 2001-08-21 18:35:00
Back to CruiseResearch ActivitiesStationsMapUnderway DataData graphs

EquipmentUnitsComments
TimeDGPSUTC
LatitudeDGPSDM.mWGS84
LongitudeDGPSDM.mWGS84
SpeedMeteo Stationm/sRelative wind speed
DirectionMeteo StationdegRelative wind direction
TemperatureMeteo Stationdeg CelciusAir temperature
PressureMeteo StationPaAtmospheric pressure
HumidityMeteo Station%Relative humidity
Missing or incorrect values are displayed as -999
Metereological data collected by the RV Zeeleeuw from 2001-08-21 06:17:17 to 2001-08-21 18:35:00
                                                                                    Next 1000 lines
Time Latitude Longitude Speed Direction Temperature Pressure Humidity
2001-08-21 06:17:27 51°13.68 2°55.92 1.2 351 14.5 101970 92
2001-08-21 06:17:33 51°13.678 2°55.92 1.3 342 14.5 101970 92
2001-08-21 06:17:39 51°13.678 2°55.921 1.4 347 14.5 101970 92
2001-08-21 06:17:47 51°13.678 2°55.921 1.3 346 -999 -999 -999
2001-08-21 06:17:53 51°13.678 2°55.921 1 336 14.6 101970 92
2001-08-21 06:19:11 51°13.678 2°55.921 1.8 341 14.6 101970 92
2001-08-21 06:19:17 51°13.678 2°55.921 1.8 348 14.6 101970 92
2001-08-21 06:19:21 51°13.678 2°55.921 1.6 342 14.6 101970 92
2001-08-21 06:19:27 51°13.678 2°55.921 1.5 342 14.6 101970 92
2001-08-21 06:19:31 51°13.678 2°55.921 1.5 339 14.6 101970 92
2001-08-21 06:19:37 51°13.678 2°55.921 0.8 336 14.6 101970 92
2001-08-21 06:19:41 51°13.678 2°55.921 1.4 344 14.6 101980 92
2001-08-21 06:19:47 51°13.678 2°55.921 1 340 14.6 101980 92
2001-08-21 06:19:51 51°13.678 2°55.921 1.4 345 14.7 101970 92
2001-08-21 06:19:57 51°13.678 2°55.921 1.4 347 14.7 101970 92
2001-08-21 06:20:01 51°13.678 2°55.921 1.5 352 14.7 101980 92
2001-08-21 06:20:05 51°13.678 2°55.921 1.5 352 14.7 101980 92
2001-08-21 06:20:11 51°13.678 2°55.921 1.4 344 14.7 101980 92
2001-08-21 06:20:17 51°13.678 2°55.921 1.8 345 14.7 101980 92
2001-08-21 06:20:21 51°13.678 2°55.921 1.7 345 14.7 101970 92
2001-08-21 06:20:27 51°13.678 2°55.921 1.2 341 14.7 101970 92
2001-08-21 06:20:31 51°13.678 2°55.921 1.4 347 14.7 101980 92
2001-08-21 06:20:34 51°13.678 2°55.921 2.2 341 14.7 101980 92
2001-08-21 06:20:41 51°13.678 2°55.922 1.9 337 14.7 101970 92
2001-08-21 06:20:45 51°13.678 2°55.922 1.9 334 14.7 101970 92
2001-08-21 06:20:51 51°13.678 2°55.922 1.9 320 14.7 101980 92
2001-08-21 06:20:57 51°13.678 2°55.922 2 319 14.7 101980 92
2001-08-21 06:21:01 51°13.678 2°55.922 1.6 329 14.7 101980 92
2001-08-21 06:21:07 51°13.678 2°55.922 0.4 307 14.7 101980 92
2001-08-21 06:21:11 51°13.678 2°55.922 0.9 290 14.7 101970 92
2001-08-21 06:21:15 51°13.678 2°55.922 1.3 325 14.7 101970 92
2001-08-21 06:21:21 51°13.678 2°55.922 0.9 329 14.7 101980 92
2001-08-21 06:21:27 51°13.678 2°55.922 1.5 325 14.7 101980 92
2001-08-21 06:21:31 51°13.678 2°55.922 1.3 332 14.7 101980 91
2001-08-21 06:21:37 51°13.678 2°55.922 1.3 327 14.7 101980 91
2001-08-21 06:21:41 51°13.678 2°55.922 1 329 14.7 101980 91
2001-08-21 06:21:47 51°13.678 2°55.922 1 332 14.7 101980 91
2001-08-21 06:21:51 51°13.678 2°55.922 1.2 333 14.7 101980 91
2001-08-21 06:21:57 51°13.678 2°55.922 1.6 337 14.7 101980 91
2001-08-21 06:22:01 51°13.678 2°55.922 0.7 329 14.7 101980 91
2001-08-21 06:22:07 51°13.678 2°55.922 1.5 344 14.7 101980 91
2001-08-21 06:22:11 51°13.678 2°55.922 1.2 343 14.7 101980 91
2001-08-21 06:22:17 51°13.678 2°55.922 1.8 335 14.7 101980 91
2001-08-21 06:22:21 51°13.678 2°55.922 2.3 347 14.7 101980 91
2001-08-21 06:22:27 51°13.678 2°55.922 1.9 325 14.7 101980 91
2001-08-21 06:22:31 51°13.678 2°55.922 1.4 329 14.7 101980 91
2001-08-21 06:22:37 51°13.678 2°55.922 1.2 334 14.7 101980 91
2001-08-21 06:22:41 51°13.678 2°55.922 1 328 14.7 101980 91
2001-08-21 06:22:45 51°13.678 2°55.922 1.7 333 14.7 101980 91
2001-08-21 06:22:51 51°13.678 2°55.922 1.8 329 14.7 101980 91
2001-08-21 06:22:57 51°13.678 2°55.922 1.6 344 14.7 101980 91
2001-08-21 06:23:01 51°13.678 2°55.922 2.2 343 14.7 101980 91
2001-08-21 06:23:07 51°13.678 2°55.922 2.1 343 14.7 101980 91
2001-08-21 06:23:11 51°13.678 2°55.922 2.2 327 14.7 101980 91
2001-08-21 06:23:17 51°13.678 2°55.922 1.7 328 14.7 101980 91
2001-08-21 06:23:21 51°13.678 2°55.922 1.5 327 14.7 101980 91
2001-08-21 06:23:39 51°13.678 2°55.922 2 352 -999 -999 -999
2001-08-21 06:23:43 51°13.678 2°55.922 2 348 14.7 101980 91
2001-08-21 06:23:49 51°13.678 2°55.922 1.7 326 14.7 101980 91
2001-08-21 06:23:53 51°13.678 2°55.922 1.7 333 14.7 101980 91
2001-08-21 06:23:59 51°13.678 2°55.922 1.8 329 14.7 101980 91
2001-08-21 06:24:03 51°13.678 2°55.921 1 322 14.7 101980 91
2001-08-21 06:24:09 51°13.678 2°55.922 1.7 325 14.7 101980 91
2001-08-21 06:24:13 51°13.678 2°55.922 1.6 332 14.7 101980 91
2001-08-21 06:24:19 51°13.678 2°55.922 2 337 14.7 101980 91
2001-08-21 06:24:23 51°13.678 2°55.922 2 327 14.7 101980 91
2001-08-21 06:24:27 51°13.678 2°55.922 1.4 331 14.7 101980 91
2001-08-21 06:24:33 51°13.678 2°55.922 1.5 334 14.7 101980 91
2001-08-21 06:24:39 51°13.678 2°55.921 1.4 335 14.7 101980 91
2001-08-21 06:24:43 51°13.678 2°55.921 1.3 339 14.7 101980 91
2001-08-21 06:24:47 51°13.678 2°55.922 1.2 333 14.7 101980 91
2001-08-21 06:24:53 51°13.678 2°55.922 1.5 329 14.7 101980 91
2001-08-21 06:24:59 51°13.678 2°55.922 1.3 338 14.7 101980 91
2001-08-21 06:25:03 51°13.678 2°55.922 1.2 326 14.7 101980 91
2001-08-21 06:25:09 51°13.678 2°55.922 1 327 14.7 101980 91
2001-08-21 06:25:14 51°13.678 2°55.922 0.5 316 14.7 101980 91
2001-08-21 06:25:19 51°13.678 2°55.922 1.7 332 14.7 101980 91
2001-08-21 06:25:23 51°13.678 2°55.922 1.9 326 14.7 101980 91
2001-08-21 06:25:29 51°13.678 2°55.922 1.5 331 14.7 101980 91
2001-08-21 06:25:33 51°13.678 2°55.922 1.2 326 14.7 101980 91
2001-08-21 06:25:39 51°13.678 2°55.922 1.2 330 14.7 101980 91
2001-08-21 06:25:43 51°13.678 2°55.922 1 330 14.7 101980 91
2001-08-21 06:25:49 51°13.678 2°55.922 1 331 14.7 101980 91
2001-08-21 06:25:53 51°13.678 2°55.922 1.7 336 14.7 101980 91
2001-08-21 06:25:59 51°13.678 2°55.922 1.8 339 14.7 101980 91
2001-08-21 06:26:03 51°13.678 2°55.922 1.9 335 14.7 101980 91
2001-08-21 06:26:07 51°13.678 2°55.922 1.5 329 14.7 101980 91
2001-08-21 06:26:13 51°13.678 2°55.922 1.4 334 14.7 101980 91
2001-08-21 06:26:19 51°13.678 2°55.922 1.7 331 14.7 101980 91
2001-08-21 06:26:23 51°13.678 2°55.923 1.7 317 14.7 101980 91
2001-08-21 06:26:29 51°13.678 2°55.923 1.5 321 14.7 101980 91
2001-08-21 06:26:33 51°13.678 2°55.923 1.4 311 14.7 101980 91
2001-08-21 06:26:39 51°13.678 2°55.923 1.6 325 14.7 101980 91
2001-08-21 06:26:43 51°13.678 2°55.923 1.4 319 14.7 101980 91
2001-08-21 06:26:49 51°13.678 2°55.923 1.3 314 14.7 101980 91
2001-08-21 06:26:53 51°13.678 2°55.923 1.6 325 14.7 101980 91
2001-08-21 06:26:57 51°13.678 2°55.923 0.6 325 14.7 101980 91
2001-08-21 06:27:03 51°13.678 2°55.923 1.1 327 14.7 101990 91
2001-08-21 06:27:09 51°13.678 2°55.923 1.5 330 14.7 101990 91
2001-08-21 06:27:13 51°13.678 2°55.923 1.4 317 14.7 101980 91
2001-08-21 06:27:19 51°13.678 2°55.923 1.6 314 14.7 101980 91
2001-08-21 06:27:23 51°13.678 2°55.923 1.2 316 14.7 101990 91
2001-08-21 06:27:29 51°13.678 2°55.923 1.1 297 14.7 101990 91
2001-08-21 06:27:33 51°13.678 2°55.923 1.1 298 14.7 101990 91
2001-08-21 06:27:39 51°13.678 2°55.923 1.2 286 14.7 101990 91
2001-08-21 06:27:43 51°13.678 2°55.923 1 292 14.7 101990 91
2001-08-21 06:27:47 51°13.678 2°55.923 0.5 311 14.7 101990 91
2001-08-21 06:27:53 51°13.678 2°55.923 0.8 317 14.7 101990 91
2001-08-21 06:27:59 51°13.678 2°55.923 1.3 312 14.7 101990 91
2001-08-21 06:28:03 51°13.678 2°55.923 1.2 313 14.7 101990 91
2001-08-21 06:28:09 51°13.678 2°55.923 1.2 324 14.7 101990 91
2001-08-21 06:28:13 51°13.678 2°55.923 1.4 325 14.7 101990 91
2001-08-21 06:28:17 51°13.678 2°55.923 1.6 325 14.7 101990 91
2001-08-21 06:28:23 51°13.678 2°55.923 1.6 324 14.7 101990 91
2001-08-21 06:28:29 51°13.678 2°55.923 1.8 339 14.7 101990 91
2001-08-21 06:28:33 51°13.678 2°55.923 1.6 338 14.7 101990 91
2001-08-21 06:28:39 51°13.678 2°55.923 1.5 328 14.7 101990 91
2001-08-21 06:28:43 51°13.678 2°55.923 1.5 324 14.8 101980 91
2001-08-21 06:28:49 51°13.678 2°55.923 0.8 328 14.8 101980 91
2001-08-21 06:28:53 51°13.678 2°55.923 0.9 337 14.7 101990 91
2001-08-21 06:28:59 51°13.678 2°55.923 0.5 318 14.7 101990 91
2001-08-21 06:29:03 51°13.678 2°55.923 0.4 325 14.7 101990 91
2001-08-21 06:29:09 51°13.678 2°55.923 0.9 317 14.7 101990 91
2001-08-21 06:29:13 51°13.678 2°55.923 1.1 323 14.7 101990 91
2001-08-21 06:29:19 51°13.678 2°55.923 1.2 300 14.7 101990 91
2001-08-21 06:29:23 51°13.678 2°55.923 0.9 300 14.8 101990 91
2001-08-21 06:29:27 51°13.678 2°55.923 1 311 14.8 101990 91
2001-08-21 06:29:33 51°13.678 2°55.923 1 313 14.7 101990 91
2001-08-21 06:29:39 51°13.678 2°55.923 1 311 14.7 101990 91
2001-08-21 06:29:43 51°13.678 2°55.923 1.2 309 14.8 101990 91
2001-08-21 06:29:49 51°13.678 2°55.923 1.1 307 14.8 101990 91
2001-08-21 06:29:53 51°13.678 2°55.923 0.9 305 14.8 101990 91
2001-08-21 06:29:59 51°13.678 2°55.923 0.9 306 14.8 101990 91
2001-08-21 06:30:03 51°13.678 2°55.923 0.9 307 14.8 101990 91
2001-08-21 06:30:09 51°13.678 2°55.923 1 314 14.8 101990 91
2001-08-21 06:30:13 51°13.678 2°55.923 1 315 14.8 101990 91
2001-08-21 06:30:18 51°13.678 2°55.923 1.2 321 14.8 101990 91
2001-08-21 06:30:23 51°13.678 2°55.923 1.3 327 14.8 101990 91
2001-08-21 06:30:29 51°13.678 2°55.923 1.3 342 14.8 101990 91
2001-08-21 06:30:33 51°13.678 2°55.923 1.5 344 14.8 101990 91
2001-08-21 06:30:37 51°13.678 2°55.923 1.6 324 14.8 101990 91
2001-08-21 06:30:43 51°13.678 2°55.923 2 321 14.8 101990 91
2001-08-21 06:30:49 51°13.678 2°55.923 1.5 282 14.8 101990 91
2001-08-21 06:30:53 51°13.678 2°55.923 1.1 306 14.8 101990 91
2001-08-21 06:30:59 51°13.678 2°55.922 0.8 308 14.8 101990 91
2001-08-21 06:31:03 51°13.678 2°55.922 0.6 311 14.8 101990 91
2001-08-21 06:31:07 51°13.678 2°55.922 2.2 272 14.8 101990 91
2001-08-21 06:31:13 51°13.678 2°55.922 2.1 291 14.8 101990 91
2001-08-21 06:31:17 51°13.678 2°55.922 0.5 316 14.8 101990 91
2001-08-21 06:31:23 51°13.678 2°55.922 0.3 319 14.8 101990 91
2001-08-21 06:31:29 51°13.678 2°55.922 0.8 313 14.8 101990 91
2001-08-21 06:31:33 51°13.678 2°55.922 1 326 14.8 101990 91
2001-08-21 06:31:39 51°13.678 2°55.922 1.1 333 14.8 101990 91
2001-08-21 06:31:43 51°13.678 2°55.922 1.1 336 14.8 101990 90
2001-08-21 06:31:49 51°13.678 2°55.922 1.4 339 14.8 101990 90
2001-08-21 06:31:53 51°13.678 2°55.922 1.5 330 14.8 101990 90
2001-08-21 06:31:59 51°13.678 2°55.922 1.1 327 14.8 101990 90
2001-08-21 06:32:03 51°13.678 2°55.922 1.2 327 14.8 101990 90
2001-08-21 06:32:09 51°13.678 2°55.922 1.7 314 14.8 101990 90
2001-08-21 06:32:13 51°13.678 2°55.922 1.2 302 14.9 101990 91
2001-08-21 06:32:19 51°13.678 2°55.922 1.1 300 14.9 101990 91
2001-08-21 06:32:23 51°13.678 2°55.922 0.9 308 14.9 101990 91
2001-08-21 06:32:29 51°13.678 2°55.922 0.3 316 14.9 101990 91
2001-08-21 06:32:33 51°13.678 2°55.922 0.7 313 14.9 101990 91
2001-08-21 06:32:39 51°13.678 2°55.922 1 345 14.9 101990 91
2001-08-21 06:32:43 51°13.678 2°55.922 1.3 342 14.9 101990 91
2001-08-21 06:32:49 51°13.678 2°55.922 1.2 340 14.9 101990 91
2001-08-21 06:32:53 51°13.678 2°55.922 1.7 341 14.9 101990 91
2001-08-21 06:32:59 51°13.678 2°55.922 1.2 325 14.9 101990 91
2001-08-21 06:33:03 51°13.678 2°55.922 1 326 14.9 101990 91
2001-08-21 06:33:07 51°13.678 2°55.922 1.2 343 14.9 101990 91
2001-08-21 06:33:13 51°13.678 2°55.922 1.5 351 14.9 101990 91
2001-08-21 06:33:19 51°13.678 2°55.922 1.5 341 14.9 101990 91
2001-08-21 06:33:23 51°13.678 2°55.922 2 346 14.9 101990 91
2001-08-21 06:33:29 51°13.678 2°55.922 1.7 342 14.9 101990 91
2001-08-21 06:33:33 51°13.678 2°55.922 1.6 341 14.9 101990 91
2001-08-21 06:33:39 51°13.678 2°55.922 1 330 14.9 101990 91
2001-08-21 06:33:43 51°13.678 2°55.922 1.2 327 15 101990 91
2001-08-21 06:33:49 51°13.678 2°55.922 0.4 329 15 101990 91
2001-08-21 06:33:53 51°13.678 2°55.922 0.9 337 15 101990 91
2001-08-21 06:33:59 51°13.678 2°55.922 1.3 342 15 101990 91
2001-08-21 06:34:03 51°13.678 2°55.922 1.6 349 15 101990 91
2001-08-21 06:34:07 51°13.678 2°55.922 0.8 327 15 101990 91
2001-08-21 06:34:13 51°13.678 2°55.922 1.6 327 15 101990 91
2001-08-21 06:34:17 51°13.678 2°55.922 0.9 312 15 101990 91
2001-08-21 06:34:23 51°13.678 2°55.922 0.5 310 15 101990 91
2001-08-21 06:34:27 51°13.678 2°55.922 0.9 312 15 101990 91
2001-08-21 06:34:33 51°13.678 2°55.922 1.4 312 15 101990 90
2001-08-21 06:34:39 51°13.678 2°55.922 1.1 315 15 101990 90
2001-08-21 06:34:43 51°13.678 2°55.922 1 307 15 101990 90
2001-08-21 06:34:49 51°13.678 2°55.923 0.9 296 15 101990 90
2001-08-21 06:34:53 51°13.678 2°55.923 1.5 293 15 101990 90
2001-08-21 06:34:59 51°13.678 2°55.923 1.1 304 15 101990 90
2001-08-21 06:35:03 51°13.678 2°55.922 1.4 292 15 101990 90
2001-08-21 06:35:09 51°13.678 2°55.923 1.1 297 15 101990 90
2001-08-21 06:35:13 51°13.678 2°55.923 1 297 15 101990 90
2001-08-21 06:35:19 51°13.678 2°55.923 0.9 301 15 101990 90
2001-08-21 06:35:23 51°13.678 2°55.923 0.9 300 15 101990 90
2001-08-21 06:35:29 51°13.678 2°55.923 1.1 330 15 101990 90
2001-08-21 06:35:33 51°13.678 2°55.923 0.7 300 15 101990 90
2001-08-21 06:35:39 51°13.678 2°55.923 0.8 289 15 101990 90
2001-08-21 06:35:43 51°13.678 2°55.923 0.5 326 15 101990 90
2001-08-21 06:35:49 51°13.678 2°55.923 0.3 325 15 101990 90
2001-08-21 06:35:53 51°13.678 2°55.923 0.3 329 15 101990 90
2001-08-21 06:35:59 51°13.678 2°55.923 1.3 327 15 101990 90
2001-08-21 06:36:03 51°13.678 2°55.923 1.3 327 15 101990 90
2001-08-21 06:36:09 51°13.678 2°55.923 1.3 337 15 101990 90
2001-08-21 06:36:13 51°13.678 2°55.923 0.9 334 15 101990 90
2001-08-21 06:36:19 51°13.678 2°55.923 1.1 325 15 101990 90
2001-08-21 06:36:23 51°13.678 2°55.923 0.8 321 15 101990 90
2001-08-21 06:36:29 51°13.678 2°55.923 0.9 311 15 101990 90
2001-08-21 06:36:33 51°13.678 2°55.923 1.1 305 15 101990 90
2001-08-21 06:36:39 51°13.678 2°55.923 1.4 331 15 101990 90
2001-08-21 06:36:43 51°13.677 2°55.923 1.3 330 15 101990 90
2001-08-21 06:36:48 51°13.677 2°55.923 0.4 316 15 101990 90
2001-08-21 06:36:53 51°13.677 2°55.923 0.3 331 15 101990 90
2001-08-21 06:36:59 51°13.677 2°55.923 1.7 263 15 101990 90
2001-08-21 06:37:03 51°13.677 2°55.923 1.3 292 15.1 101990 90
2001-08-21 06:37:09 51°13.677 2°55.923 1.3 326 15.1 101990 90
2001-08-21 06:37:13 51°13.677 2°55.923 0.8 323 15.1 101990 90
2001-08-21 06:37:19 51°13.677 2°55.923 0.8 333 15.1 101990 90
2001-08-21 06:37:23 51°13.677 2°55.923 1.2 334 15.1 101990 90
2001-08-21 06:37:29 51°13.677 2°55.923 1.2 303 15.1 101990 90
2001-08-21 06:37:33 51°13.677 2°55.923 1.2 303 15.1 101990 90
2001-08-21 06:37:39 51°13.677 2°55.923 1.5 317 15.1 101990 90
2001-08-21 06:37:43 51°13.677 2°55.923 1.3 304 15.1 101980 90
2001-08-21 06:37:49 51°13.677 2°55.923 0.6 318 15.1 101980 90
2001-08-21 06:37:53 51°13.677 2°55.923 0.2 317 15.1 101990 90
2001-08-21 06:37:59 51°13.677 2°55.923 0.1 325 15.1 101990 90
2001-08-21 06:38:03 51°13.677 2°55.923 0.1 324 15.1 101990 90
2001-08-21 06:38:09 51°13.677 2°55.923 0.1 323 15.1 101990 90
2001-08-21 06:38:13 51°13.677 2°55.923 0.1 319 15.1 101990 90
2001-08-21 06:38:19 51°13.677 2°55.924 0.2 316 15.1 101990 90
2001-08-21 06:38:23 51°13.677 2°55.924 0.1 317 15.1 101990 89
2001-08-21 06:38:27 51°13.677 2°55.923 0.6 318 15.1 101990 89
2001-08-21 06:38:33 51°13.677 2°55.923 0.6 330 15.1 101990 89
2001-08-21 06:38:39 51°13.677 2°55.923 2.1 332 15.1 101990 89
2001-08-21 06:38:43 51°13.677 2°55.923 0.5 321 15.1 101990 89
2001-08-21 06:38:49 51°13.677 2°55.923 1.3 331 15.1 101990 89
2001-08-21 06:38:53 51°13.677 2°55.923 1.7 326 15.1 101990 89
2001-08-21 06:38:59 51°13.677 2°55.923 1.8 316 15.1 101990 89
2001-08-21 06:39:03 51°13.677 2°55.924 1.9 312 15.1 101990 89
2001-08-21 06:39:08 51°13.677 2°55.924 1 300 15.1 101990 89
2001-08-21 06:39:13 51°13.677 2°55.924 1.4 311 15.1 101990 89
2001-08-21 06:39:19 51°13.677 2°55.924 1.6 311 15.1 101990 89
2001-08-21 06:39:23 51°13.677 2°55.924 1.8 325 15.1 101990 89
2001-08-21 06:39:29 51°13.677 2°55.924 1.7 310 15.1 101990 89
2001-08-21 06:39:34 51°13.677 2°55.924 1.7 317 15.1 101990 89
2001-08-21 06:39:39 51°13.677 2°55.924 0.5 314 15.1 101990 89
2001-08-21 06:39:43 51°13.677 2°55.924 0.6 310 15.1 101990 89
2001-08-21 06:39:49 51°13.677 2°55.924 0.9 305 15.1 101990 89
2001-08-21 06:39:53 51°13.677 2°55.924 1.1 296 15.1 101990 89
2001-08-21 06:39:59 51°13.677 2°55.924 1.1 301 15.1 101990 89
2001-08-21 06:40:03 51°13.677 2°55.925 1 301 15.1 101990 89
2001-08-21 06:40:09 51°13.677 2°55.925 1.8 281 15.1 101990 89
2001-08-21 06:40:13 51°13.677 2°55.925 1.5 260 15.1 101990 89
2001-08-21 06:40:19 51°13.677 2°55.924 1.5 253 15.1 101990 89
2001-08-21 06:40:23 51°13.677 2°55.924 1.3 267 15.1 101990 89
2001-08-21 06:40:29 51°13.677 2°55.924 1.3 266 15.1 101990 89
2001-08-21 06:40:33 51°13.676 2°55.924 1.1 271 15.1 101990 89
2001-08-21 06:40:39 51°13.676 2°55.924 1.1 277 15.1 101990 89
2001-08-21 06:40:43 51°13.676 2°55.924 1 275 15.1 101990 89
2001-08-21 06:40:49 51°13.676 2°55.924 1 287 15.1 101990 89
2001-08-21 06:40:53 51°13.676 2°55.924 1 291 15.1 101990 89
2001-08-21 06:40:59 51°13.676 2°55.924 0.9 295 15.1 101990 89
2001-08-21 06:41:03 51°13.676 2°55.924 0.9 297 15.1 101990 89
2001-08-21 06:41:09 51°13.676 2°55.925 0.9 274 15.1 101990 89
2001-08-21 06:41:13 51°13.676 2°55.924 0.9 275 15.1 101990 89
2001-08-21 06:41:19 51°13.676 2°55.924 1.3 311 15.1 101990 89
2001-08-21 06:41:23 51°13.676 2°55.924 1.3 304 15.1 101990 89
2001-08-21 06:41:29 51°13.676 2°55.924 1.1 307 15.1 101990 89
2001-08-21 06:41:33 51°13.676 2°55.924 1.1 257 15.1 101990 89
2001-08-21 06:41:39 51°13.676 2°55.924 1 270 15.1 101990 89
2001-08-21 06:41:43 51°13.676 2°55.924 0.9 276 15.1 101990 89
2001-08-21 06:41:49 51°13.676 2°55.923 0.9 291 15.1 101990 89
2001-08-21 06:41:53 51°13.676 2°55.923 0.7 305 15.1 101990 90
2001-08-21 06:41:59 51°13.676 2°55.922 0.8 225 15.1 101990 90
2001-08-21 06:42:03 51°13.676 2°55.921 0.7 225 15.1 101990 89
2001-08-21 06:42:09 51°13.677 2°55.919 1.1 269 15.1 101990 89
2001-08-21 06:42:13 51°13.677 2°55.918 1 278 15.1 101990 89
2001-08-21 06:42:19 51°13.677 2°55.915 0.5 306 15.1 101990 89
2001-08-21 06:42:23 51°13.678 2°55.913 0.5 298 15.1 101990 89
2001-08-21 06:42:29 51°13.679 2°55.909 0.4 280 15.1 101990 89
2001-08-21 06:42:33 51°13.68 2°55.906 0.5 267 15.1 101990 89
2001-08-21 06:42:39 51°13.681 2°55.9 1.1 243 15.1 101990 89
2001-08-21 06:42:44 51°13.683 2°55.894 1.2 226 15.2 101990 89
2001-08-21 06:42:48 51°13.684 2°55.889 1.5 199 15.2 101990 89
2001-08-21 06:42:53 51°13.686 2°55.882 1.8 188 15.2 101990 89
2001-08-21 06:42:59 51°13.688 2°55.873 1.7 189 15.2 101990 89
2001-08-21 06:43:04 51°13.69 2°55.865 1.7 198 15.2 101990 89
2001-08-21 06:43:09 51°13.692 2°55.857 1.5 202 15.2 101990 89
2001-08-21 06:43:15 51°13.695 2°55.848 1.4 201 15.2 101990 89
2001-08-21 06:43:19 51°13.696 2°55.842 1.4 204 15.2 101990 89
2001-08-21 06:43:23 51°13.698 2°55.837 1.3 203 15.2 101990 89
2001-08-21 06:43:29 51°13.7 2°55.828 1 213 15.2 101990 89
2001-08-21 06:43:33 51°13.701 2°55.822 1.1 204 15.2 101990 89
2001-08-21 06:43:39 51°13.703 2°55.814 1.2 219 15.2 101990 89
2001-08-21 06:43:44 51°13.704 2°55.806 1.3 217 15.1 101990 89
2001-08-21 06:43:49 51°13.705 2°55.799 1.2 212 15.1 101990 89
2001-08-21 06:43:53 51°13.706 2°55.794 1.2 210 15.2 101990 89
2001-08-21 06:43:59 51°13.707 2°55.786 1.1 213 15.2 101990 89
2001-08-21 06:44:03 51°13.708 2°55.781 1.1 214 15.1 101990 89
2001-08-21 06:44:09 51°13.709 2°55.773 1.1 222 15.1 101990 89
2001-08-21 06:44:13 51°13.709 2°55.768 1 220 15.2 101990 89
2001-08-21 06:44:19 51°13.71 2°55.761 1.1 221 15.2 101990 89
2001-08-21 06:44:23 51°13.71 2°55.756 1.3 215 15.2 101990 89
2001-08-21 06:44:29 51°13.711 2°55.749 1.2 209 15.2 101990 89
2001-08-21 06:44:33 51°13.711 2°55.745 0.9 201 15.2 101990 89
2001-08-21 06:44:39 51°13.711 2°55.738 0.9 194 15.2 101990 89
2001-08-21 06:44:43 51°13.711 2°55.734 1 197 15.2 101990 89
2001-08-21 06:44:49 51°13.711 2°55.728 1.4 222 15.2 101990 89
2001-08-21 06:44:53 51°13.711 2°55.724 1.3 208 15.2 101990 89
2001-08-21 06:44:59 51°13.712 2°55.718 1.4 194 15.2 101990 89
2001-08-21 06:45:03 51°13.712 2°55.716 1.3 201 15.2 101990 89
2001-08-21 06:45:07 51°13.712 2°55.715 0.9 222 15.2 101990 89
2001-08-21 06:45:13 51°13.713 2°55.715 0.9 232 15.2 101990 89
2001-08-21 06:45:17 51°13.714 2°55.717 0.6 233 15.2 101990 89
2001-08-21 06:45:23 51°13.717 2°55.72 0.4 242 15.2 101990 89
2001-08-21 06:45:29 51°13.721 2°55.724 0.5 297 15.2 101990 89
2001-08-21 06:45:33 51°13.725 2°55.727 0.5 299 15.2 101990 90
2001-08-21 06:45:39 51°13.73 2°55.729 0.5 298 15.2 101990 90
2001-08-21 06:45:43 51°13.733 2°55.731 0.5 293 15.2 101990 90
2001-08-21 06:45:49 51°13.736 2°55.732 0.4 207 15.2 101990 90
2001-08-21 06:45:53 51°13.737 2°55.733 0.4 193 15.3 101990 90
2001-08-21 06:45:59 51°13.738 2°55.733 1.1 201 15.3 101990 90
2001-08-21 06:46:03 51°13.738 2°55.733 0.9 198 15.3 101990 90
2001-08-21 06:46:09 51°13.736 2°55.732 1.7 195 15.3 101990 90
2001-08-21 06:46:13 51°13.734 2°55.732 1.7 198 15.3 101990 90
2001-08-21 06:46:19 51°13.731 2°55.731 1.5 154 15.3 101990 90
2001-08-21 06:46:24 51°13.728 2°55.73 1.3 158 15.3 101990 90
2001-08-21 06:46:29 51°13.726 2°55.729 2 165 15.3 101990 90
2001-08-21 06:46:34 51°13.725 2°55.728 2.1 166 15.4 101990 90
2001-08-21 06:46:39 51°13.726 2°55.728 1.4 147 15.4 101990 90
2001-08-21 06:46:43 51°13.727 2°55.727 1.4 129 15.4 101990 90
2001-08-21 06:46:49 51°13.731 2°55.726 0.6 92 15.4 101990 90
2001-08-21 06:46:53 51°13.734 2°55.725 0.5 84 15.4 101990 90
2001-08-21 06:46:59 51°13.74 2°55.722 1.1 28 15.4 101990 90
2001-08-21 06:47:03 51°13.745 2°55.719 1.6 32 15.4 101990 89
2001-08-21 06:47:09 51°13.753 2°55.713 2 32 15.4 101990 89
2001-08-21 06:47:13 51°13.758 2°55.708 1.4 33 15.4 101990 89
2001-08-21 06:47:19 51°13.766 2°55.701 1.2 34 15.4 101990 89
2001-08-21 06:47:23 51°13.771 2°55.696 1.5 33 15.4 101990 89
2001-08-21 06:47:29 51°13.778 2°55.689 1.6 35 15.4 101990 89
2001-08-21 06:47:33 51°13.782 2°55.684 1.4 35 15.4 101990 89
2001-08-21 06:47:39 51°13.789 2°55.678 1.1 37 15.4 101990 89
2001-08-21 06:47:43 51°13.794 2°55.673 1 36 15.4 101990 89
2001-08-21 06:47:49 51°13.801 2°55.666 1.9 34 15.4 101990 89
2001-08-21 06:47:53 51°13.805 2°55.662 1.9 37 15.4 101990 89
2001-08-21 06:47:59 51°13.812 2°55.656 1.3 40 15.4 101990 89
2001-08-21 06:48:03 51°13.817 2°55.652 1 40 15.4 101990 88
2001-08-21 06:48:09 51°13.824 2°55.646 0.9 26 15.4 101990 88
2001-08-21 06:48:13 51°13.828 2°55.642 0.8 21 15.4 101990 88
2001-08-21 06:48:19 51°13.835 2°55.636 0.4 21 15.4 101990 88
2001-08-21 06:48:23 51°13.84 2°55.632 0.5 22 15.4 101990 88
2001-08-21 06:48:29 51°13.847 2°55.627 0.6 22 15.4 101990 88
2001-08-21 06:48:33 51°13.852 2°55.623 0.5 21 15.5 101990 88
2001-08-21 06:48:39 51°13.859 2°55.617 0.5 17 15.5 101990 88
2001-08-21 06:48:43 51°13.864 2°55.614 0.6 5 15.5 101990 88
2001-08-21 06:48:49 51°13.872 2°55.608 0.5   15.5 101990 88
2001-08-21 06:48:53 51°13.877 2°55.605 0.5 353 15.5 101990 88
2001-08-21 06:48:59 51°13.884 2°55.599 0.5 347 15.5 101990 88
2001-08-21 06:49:03 51°13.89 2°55.595 0.5 348 15.5 101990 88
2001-08-21 06:49:08 51°13.896 2°55.591 0.3 349 15.5 101990 88
2001-08-21 06:49:12 51°13.901 2°55.587 0.2 349 15.5 101990 88
2001-08-21 06:49:17 51°13.908 2°55.583 0.3 349 15.5 101990 88
2001-08-21 06:49:23 51°13.916 2°55.577 0.3 349 15.5 101990 88
2001-08-21 06:49:27 51°13.921 2°55.573 0.6 13 15.5 101990 88
2001-08-21 06:49:33 51°13.929 2°55.568 1 18 15.5 101990 88
2001-08-21 06:49:36 51°13.933 2°55.565 0.8 27 15.5 101990 88
2001-08-21 06:49:43 51°13.942 2°55.558 0.6 29 15.5 101990 88
2001-08-21 06:49:47 51°13.947 2°55.555 0.8 29 15.5 101990 88
2001-08-21 06:49:53 51°13.956 2°55.549 0.7 24 15.6 101990 88
2001-08-21 06:49:59 51°13.964 2°55.544 1.1 10 15.6 101990 88
2001-08-21 06:50:03 51°13.969 2°55.54 1.2 10 15.6 101990 88
2001-08-21 06:50:07 51°13.974 2°55.536 1.9 29 15.6 101990 88
2001-08-21 06:50:13 51°13.983 2°55.531 1.5 1 15.6 101990 88
2001-08-21 06:50:19 51°13.991 2°55.525 2 356 15.6 101990 88
2001-08-21 06:50:23 51°13.996 2°55.521 2.3 16 15.6 101990 88
2001-08-21 06:50:29 51°14.004 2°55.516 2.7 21 15.6 101990 88
2001-08-21 06:50:33 51°14.009 2°55.512 2.4 19 15.6 102000 88
2001-08-21 06:50:39 51°14.017 2°55.507 1.3 26 15.6 102000 88
2001-08-21 06:50:43 51°14.022 2°55.503 1.3 30 15.6 101990 88
2001-08-21 06:50:49 51°14.031 2°55.497 1.5 27 15.6 101990 88
2001-08-21 06:50:53 51°14.036 2°55.493 2 31 15.6 101990 88
2001-08-21 06:50:57 51°14.041 2°55.49 1.3 37 15.6 101990 88
2001-08-21 06:51:03 51°14.049 2°55.484 1.2 38 15.6 101990 88
2001-08-21 06:51:09 51°14.057 2°55.478 1.7 30 15.6 101990 88
2001-08-21 06:51:13 51°14.063 2°55.473 1.4 30 15.6 102000 87
2001-08-21 06:51:19 51°14.071 2°55.467 1.3 33 15.6 102000 87
2001-08-21 06:51:23 51°14.077 2°55.463 1 44 15.6 101990 87
2001-08-21 06:51:29 51°14.085 2°55.456 1.8 19 15.6 101990 87
2001-08-21 06:51:33 51°14.091 2°55.452 1.9 27 15.6 102000 87
2001-08-21 06:51:37 51°14.097 2°55.447 2 21 15.6 102000 87
2001-08-21 06:51:43 51°14.106 2°55.44 2 25 15.6 102000 87
2001-08-21 06:51:49 51°14.115 2°55.433 2.8 18 15.6 102000 87
2001-08-21 06:51:53 51°14.121 2°55.428 2.9 13 15.7 101990 87
2001-08-21 06:51:59 51°14.13 2°55.421 2.7 11 15.7 101990 87
2001-08-21 06:52:03 51°14.136 2°55.416 2.5 14 15.7 101990 87
2001-08-21 06:52:07 51°14.142 2°55.412 3.2 14 15.7 101990 87
2001-08-21 06:52:13 51°14.151 2°55.404 3 8 15.7 101990 87
2001-08-21 06:52:19 51°14.16 2°55.395 3.3 14 15.7 101990 87
2001-08-21 06:52:23 51°14.166 2°55.39 3.3 28 15.7 102000 87
2001-08-21 06:52:29 51°14.174 2°55.381 3.1 28 15.7 102000 87
2001-08-21 06:52:33 51°14.18 2°55.374 2.4 26 15.7 102000 87
2001-08-21 06:52:39 51°14.189 2°55.364 2.5 23 15.7 102000 87
2001-08-21 06:52:43 51°14.195 2°55.357 3 11 15.7 101990 86
2001-08-21 06:52:49 51°14.204 2°55.346 3.2 25 15.7 101990 86
2001-08-21 06:52:53 51°14.211 2°55.338 3.2 31 15.7 102000 86
2001-08-21 06:52:59 51°14.22 2°55.326 3.3 20 15.7 102000 86
2001-08-21 06:53:03 51°14.226 2°55.318 3.3 17 15.7 101990 86
2001-08-21 06:53:09 51°14.235 2°55.305 3 16 15.7 101990 86
2001-08-21 06:53:13 51°14.241 2°55.296 2.9 15 15.7 101990 86
2001-08-21 06:53:19 51°14.25 2°55.282 2.7 25 15.7 101990 86
2001-08-21 06:53:23 51°14.256 2°55.273 3.4 31 15.7 102000 86
2001-08-21 06:53:29 51°14.266 2°55.258 2.9 5 15.7 102000 86
2001-08-21 06:53:33 51°14.272 2°55.247 3.4 355 15.7 102000 86
2001-08-21 06:53:39 51°14.282 2°55.231 3.3 6 15.7 102000 86
2001-08-21 06:53:43 51°14.288 2°55.22 3 7 15.7 102000 86
2001-08-21 06:53:49 51°14.297 2°55.203 3.3 5 15.7 102000 86
2001-08-21 06:53:53 51°14.304 2°55.192 3.1 13 15.7 102000 86
2001-08-21 06:53:59 51°14.313 2°55.174 4.2 11 15.7 102000 86
2001-08-21 06:54:03 51°14.32 2°55.162 4.4 11 15.7 102000 85
2001-08-21 06:54:09 51°14.329 2°55.144 5 14 15.7 102000 85
2001-08-21 06:54:13 51°14.335 2°55.132 4.5 10 15.8 102000 85
2001-08-21 06:54:19 51°14.345 2°55.113 4.7 11 15.8 102000 85
2001-08-21 06:54:23 51°14.352 2°55.101 4.5 7 15.8 102000 85
2001-08-21 06:54:27 51°14.358 2°55.088 4.4 5 15.8 102000 85
2001-08-21 06:54:33 51°14.368 2°55.068 5 3 15.8 101990 85
2001-08-21 06:54:37 51°14.374 2°55.055 4.2 3 15.8 101990 85
2001-08-21 06:54:43 51°14.383 2°55.034 5.7 1 15.8 102000 85
2001-08-21 06:54:47 51°14.388 2°55.019 5.3 4 15.8 102000 85
2001-08-21 06:54:53 51°14.395 2°54.996 5.9 13 15.8 102000 85
2001-08-21 06:54:59 51°14.4 2°54.971 5.9 14 15.8 102000 85
2001-08-21 06:55:03 51°14.403 2°54.954 5.7 13 15.8 101990 84
2001-08-21 06:55:07 51°14.405 2°54.936 7 11 15.8 101990 84
2001-08-21 06:55:13 51°14.409 2°54.909 6.7 13 15.9 101990 84
2001-08-21 06:55:19 51°14.411 2°54.881 7.2 13 15.9 101990 84
2001-08-21 06:55:23 51°14.412 2°54.861 7.8 16 15.9 101990 84
2001-08-21 06:55:29 51°14.413 2°54.832 7.8 16 15.9 101990 84
2001-08-21 06:55:33 51°14.414 2°54.812 8.5 16 15.9 101990 84
2001-08-21 06:55:37 51°14.414 2°54.791 7.9 14 15.9 101990 84
2001-08-21 06:55:43 51°14.415 2°54.761 7.8 18 15.9 101990 83
2001-08-21 06:55:49 51°14.416 2°54.729 7.7 20 15.9 101990 83
2001-08-21 06:55:53 51°14.418 2°54.708 8.1 18 15.9 101990 83
2001-08-21 06:55:59 51°14.419 2°54.675 8.3 23 15.9 101990 83
2001-08-21 06:56:03 51°14.42 2°54.653 8.3 22 15.9 101990 83
2001-08-21 06:56:09 51°14.422 2°54.62 8.9 22 15.9 101990 83
2001-08-21 06:56:13 51°14.423 2°54.597 8.8 25 15.9 101990 83
2001-08-21 06:56:19 51°14.424 2°54.563 8.7 22 15.9 101990 83
2001-08-21 06:56:23 51°14.425 2°54.539 8.7 23 15.9 101980 83
2001-08-21 06:56:29 51°14.424 2°54.503 9 19 15.9 101980 83
2001-08-21 06:56:33 51°14.423 2°54.479 9.4 18 16 101980 83
2001-08-21 06:56:39 51°14.421 2°54.442 9.9 12 16 101980 83
2001-08-21 06:56:43 51°14.418 2°54.418 9.9 12 16 101990 83
2001-08-21 06:56:47 51°14.415 2°54.394 10 15 16 101990 83
2001-08-21 06:56:53 51°14.41 2°54.358 10 14 16 101980 83
2001-08-21 06:56:59 51°14.404 2°54.322 10 17 16 101980 83
2001-08-21 06:57:03 51°14.4 2°54.298 10.1 13 16 101980 83
2001-08-21 06:57:09 51°14.393 2°54.263 10.5 11 16 101980 83
2001-08-21 06:57:13 51°14.387 2°54.239 9.8 13 16 101980 84
2001-08-21 06:57:19 51°14.378 2°54.205 9.9 14 16 101980 84
2001-08-21 06:57:23 51°14.372 2°54.182 10 14 16 101980 84
2001-08-21 06:57:27 51°14.365 2°54.16 10.3 12 16 101980 84
2001-08-21 06:57:33 51°14.355 2°54.126 10.6 11 16 101980 84
2001-08-21 06:57:39 51°14.344 2°54.092 10 13 16 101980 84
2001-08-21 06:57:43 51°14.337 2°54.07 9.3 11 16 101980 84
2001-08-21 06:57:49 51°14.326 2°54.036 9.6 12 16 101980 84
2001-08-21 06:57:53 51°14.319 2°54.014 10.1 18 16 101980 84
2001-08-21 06:57:59 51°14.308 2°53.981 10.3 14 16 101980 84
2001-08-21 06:58:03 51°14.301 2°53.958 9.7 14 16 101980 84
2001-08-21 06:58:07 51°14.294 2°53.936 9.9 12 16 101980 84
2001-08-21 06:58:13 51°14.284 2°53.902 9.9 13 16 101980 84
2001-08-21 06:58:19 51°14.274 2°53.868 9.8 13 16 101980 84
2001-08-21 06:58:23 51°14.268 2°53.845 9.2 13 16 101990 84
2001-08-21 06:58:29 51°14.258 2°53.811 10.2 10 16 101990 84
2001-08-21 06:58:33 51°14.251 2°53.788 10.2 10 16 101990 84
2001-08-21 06:58:37 51°14.244 2°53.765 9.2 9 16 101990 84
2001-08-21 06:58:43 51°14.234 2°53.731 9 15 16 101980 84
2001-08-21 06:58:49 51°14.223 2°53.698 8.9 11 16 101980 84
2001-08-21 06:58:53 51°14.216 2°53.675 9.4 14 16 101980 85
2001-08-21 06:58:59 51°14.205 2°53.642 9.5 15 16 101980 85
2001-08-21 06:59:03 51°14.197 2°53.619 9.5 13 16 101990 84
2001-08-21 06:59:09 51°14.185 2°53.586 9.5 12 16 101990 84
2001-08-21 06:59:13 51°14.177 2°53.565 9.7 12 16 101990 84
2001-08-21 06:59:19 51°14.164 2°53.532 9.6 15 16 101990 84
2001-08-21 06:59:23 51°14.156 2°53.511 10.2 12 16 101980 84
2001-08-21 06:59:29 51°14.142 2°53.479 9.4 11 16 101980 84
2001-08-21 06:59:33 51°14.134 2°53.457 10 13 16 101990 84
2001-08-21 06:59:39 51°14.121 2°53.426 9.8 9 16 101990 84
2001-08-21 06:59:43 51°14.112 2°53.404 10.1 13 16 101990 84
2001-08-21 06:59:47 51°14.103 2°53.383 9.9 15 16 101990 84
2001-08-21 06:59:53 51°14.091 2°53.35 9.3 15 16 101980 84
2001-08-21 06:59:59 51°14.079 2°53.317 9.8 16 16 101980 84
2001-08-21 07:00:03 51°14.072 2°53.294 9.5 14 16 101980 84
2001-08-21 07:00:09 51°14.061 2°53.261 10.7 15 16 101980 84
2001-08-21 07:00:13 51°14.053 2°53.238 10.3 14 16 101980 84
2001-08-21 07:00:19 51°14.042 2°53.204 9.6 17 16 101980 84
2001-08-21 07:00:23 51°14.034 2°53.181 9.8 18 16 101980 84
2001-08-21 07:00:29 51°14.022 2°53.148 10.3 13 16 101980 84
2001-08-21 07:00:33 51°14.015 2°53.125 10.5 16 16 101990 85
2001-08-21 07:00:39 51°14.003 2°53.091 10.8 13 16 101990 85
2001-08-21 07:00:43 51°13.996 2°53.068 9.7 15 16 101980 85
2001-08-21 07:00:47 51°13.988 2°53.045 10.3 15 16 101980 85
2001-08-21 07:00:53 51°13.976 2°53.011 9.9 11 16 101980 85
2001-08-21 07:00:59 51°13.963 2°52.977 10.1 17 16 101980 85
2001-08-21 07:01:03 51°13.956 2°52.954 10.6 15 16 101980 85
2001-08-21 07:01:07 51°13.947 2°52.932 10.7 15 16 101980 85
2001-08-21 07:01:13 51°13.935 2°52.898 10.6 14 16 101980 84
2001-08-21 07:01:19 51°13.923 2°52.864 10.6 17 16 101980 84
2001-08-21 07:01:23 51°13.914 2°52.841 10.6 16 16 101980 84
2001-08-21 07:01:27 51°13.906 2°52.818 11.1 13 16 101980 84
2001-08-21 07:01:33 51°13.894 2°52.784 10.7 13 16 101980 85
2001-08-21 07:01:39 51°13.882 2°52.75 10.3 16 16 101980 85
2001-08-21 07:01:43 51°13.874 2°52.727 10.4 17 16 101980 85
2001-08-21 07:01:49 51°13.862 2°52.693 10.2 19 16 101980 85
2001-08-21 07:01:53 51°13.855 2°52.669 10.6 16 15.9 101980 85
2001-08-21 07:01:59 51°13.844 2°52.634 10.3 15 15.9 101980 85
2001-08-21 07:02:03 51°13.836 2°52.611 11 16 15.9 101980 84
2001-08-21 07:02:07 51°13.829 2°52.587 10.5 18 15.9 101980 84
2001-08-21 07:02:13 51°13.818 2°52.552 9.9 22 15.9 101980 84
2001-08-21 07:02:19 51°13.806 2°52.517 11.1 17 15.9 101980 84
2001-08-21 07:02:23 51°13.797 2°52.495 11.3 19 15.9 101980 85
2001-08-21 07:02:29 51°13.785 2°52.461 10.4 13 15.9 101980 85
2001-08-21 07:02:33 51°13.776 2°52.439 10.6 17 15.9 101980 85
2001-08-21 07:02:39 51°13.763 2°52.405 10.7 14 15.9 101980 85
2001-08-21 07:02:43 51°13.754 2°52.383 10.4 14 16 101980 85
2001-08-21 07:02:49 51°13.74 2°52.35 10.9 19 16 101980 85
2001-08-21 07:02:53 51°13.73 2°52.329 10.8 16 16 101980 85
2001-08-21 07:02:59 51°13.717 2°52.296 11.1 15 16 101980 85
2001-08-21 07:03:03 51°13.708 2°52.274 11.1 13 15.9 101980 85
2001-08-21 07:03:09 51°13.695 2°52.24 11.1 16 15.9 101980 85
2001-08-21 07:03:13 51°13.686 2°52.218 10.9 16 15.9 101980 85
2001-08-21 07:03:19 51°13.673 2°52.185 11 17 15.9 101980 85
2001-08-21 07:03:23 51°13.664 2°52.163 11.3 16 16 101980 85
2001-08-21 07:03:29 51°13.651 2°52.129 10.8 10 16 101980 85
2001-08-21 07:03:33 51°13.643 2°52.107 10.9 14 15.9 101980 85
2001-08-21 07:03:39 51°13.63 2°52.073 10.2 16 15.9 101980 85
2001-08-21 07:03:43 51°13.622 2°52.051 10.3 13 16 101980 85
2001-08-21 07:03:49 51°13.609 2°52.017 10.9 16 16 101980 85
2001-08-21 07:03:53 51°13.601 2°51.995 10.2 15 15.9 101980 85
2001-08-21 07:03:57 51°13.593 2°51.972 10.6 13 15.9 101980 85
2001-08-21 07:04:03 51°13.581 2°51.938 10.1 14 15.9 101980 85
2001-08-21 07:04:09 51°13.569 2°51.904 10.1 16 15.9 101980 85
2001-08-21 07:04:13 51°13.56 2°51.881 10.5 11 15.9 101990 85
2001-08-21 07:04:19 51°13.548 2°51.847 10 14 15.9 101990 85
2001-08-21 07:04:23 51°13.541 2°51.825 10.5 18 15.9 101980 85
2001-08-21 07:04:29 51°13.529 2°51.79 10.1 20 15.9 101980 85
2001-08-21 07:04:33 51°13.521 2°51.768 10.1 16 15.9 101990 85
2001-08-21 07:04:39 51°13.509 2°51.733 9.6 23 15.9 101990 85
2001-08-21 07:04:43 51°13.502 2°51.71 9.3 20 15.9 101980 86
2001-08-21 07:04:49 51°13.49 2°51.675 10 16 15.9 101980 86
2001-08-21 07:04:53 51°13.482 2°51.652 10.5 17 15.9 101980 86
2001-08-21 07:04:57 51°13.475 2°51.629 10.4 14 15.9 101980 86
2001-08-21 07:05:03 51°13.463 2°51.594 10.3 14 15.9 101980 86
2001-08-21 07:05:09 51°13.452 2°51.56 10 18 15.9 101980 86
2001-08-21 07:05:13 51°13.444 2°51.537 9.9 18 15.9 101980 86
2001-08-21 07:05:19 51°13.432 2°51.502 10 19 15.9 101980 86
2001-08-21 07:05:23 51°13.424 2°51.479 9.8 17 15.9 101990 86
2001-08-21 07:05:29 51°13.412 2°51.445 10.4 18 15.9 101990 86
2001-08-21 07:05:33 51°13.404 2°51.422 10.1 14 15.9 101990 86
2001-08-21 07:05:37 51°13.396 2°51.399 10.4 20 15.9 101990 86
2001-08-21 07:05:43 51°13.384 2°51.365 10.5 19 15.9 101990 87
2001-08-21 07:05:49 51°13.372 2°51.331 10.5 17 15.9 101990 87
2001-08-21 07:05:53 51°13.363 2°51.308 10.3 19 15.9 101990 87
2001-08-21 07:05:59 51°13.351 2°51.274 11 12 15.9 101990 87
2001-08-21 07:06:03 51°13.343 2°51.251 10.6 16 15.9 101980 87
2001-08-21 07:06:09 51°13.331 2°51.217 10 18 15.9 101980 87
2001-08-21 07:06:13 51°13.323 2°51.194 10.4 20 15.9 101980 87
2001-08-21 07:06:19 51°13.312 2°51.159 11 18 15.9 101980 87
2001-08-21 07:06:23 51°13.304 2°51.136 10.9 22 15.9 101980 86
2001-08-21 07:06:29 51°13.293 2°51.101 10.2 20 15.9 101980 86
2001-08-21 07:06:33 51°13.286 2°51.077 10 21 15.9 101980 86
2001-08-21 07:06:39 51°13.275 2°51.042 10.7 22 15.9 101980 86
2001-08-21 07:06:43 51°13.268 2°51.019 10.7 21 15.9 101980 86
2001-08-21 07:06:49 51°13.257 2°50.983 10.2 18 15.9 101980 86
2001-08-21 07:06:53 51°13.249 2°50.96 10.1 19 15.9 101990 86
2001-08-21 07:06:59 51°13.237 2°50.925 10.7 20 15.9 101990 86
2001-08-21 07:07:03 51°13.23 2°50.902 10.4 20 15.9 101980 86
2001-08-21 07:07:09 51°13.218 2°50.867 9.5 18 15.9 101980 86
2001-08-21 07:07:13 51°13.21 2°50.844 9.4 18 15.8 101980 86
2001-08-21 07:07:19 51°13.199 2°50.809 9.7 22 15.8 101980 86
2001-08-21 07:07:23 51°13.191 2°50.786 9.5 21 15.8 101980 86
2001-08-21 07:07:27 51°13.183 2°50.762 10.1 19 15.8 101980 86
2001-08-21 07:07:33 51°13.172 2°50.727 10.3 20 15.8 101990 86
2001-08-21 07:07:39 51°13.161 2°50.692 9.8 17 15.8 101990 86
2001-08-21 07:07:43 51°13.153 2°50.669 9.9 23 15.8 101990 86
2001-08-21 07:07:47 51°13.145 2°50.646 10.1 19 15.8 101990 86
2001-08-21 07:07:53 51°13.135 2°50.61 9.8 17 15.8 101990 87
2001-08-21 07:07:59 51°13.124 2°50.574 9.5 21 15.8 101990 87
2001-08-21 07:08:03 51°13.117 2°50.551 9.5 20 15.8 101980 87
2001-08-21 07:08:09 51°13.106 2°50.515 9.3 22 15.8 101980 87
2001-08-21 07:08:13 51°13.099 2°50.491 9.6 21 15.8 101980 86
2001-08-21 07:08:19 51°13.088 2°50.456 9.7 20 15.8 101980 86
2001-08-21 07:08:23 51°13.08 2°50.432 10.3 20 15.8 101990 87
2001-08-21 07:08:27 51°13.073 2°50.408 10.1 20 15.8 101990 87
2001-08-21 07:08:33 51°13.062 2°50.373 10.1 16 15.8 101990 87
2001-08-21 07:08:39 51°13.051 2°50.338 9.7 18 15.8 101990 87
2001-08-21 07:08:43 51°13.043 2°50.315 10.2 21 15.8 101990 87
2001-08-21 07:08:49 51°13.031 2°50.28 10.2 22 15.8 101990 87
2001-08-21 07:08:53 51°13.023 2°50.257 9.6 21 15.8 101980 87
2001-08-21 07:08:59 51°13.011 2°50.222 9.6 21 15.8 101980 87
2001-08-21 07:09:03 51°13.003 2°50.199 9.3 21 15.8 101980 87
2001-08-21 07:09:09 51°12.991 2°50.164 8.9 16 15.8 101980 87
2001-08-21 07:09:13 51°12.983 2°50.141 9.8 15 15.8 101990 87
2001-08-21 07:09:19 51°12.971 2°50.106 9.8 17 15.8 101990 87
2001-08-21 07:09:23 51°12.963 2°50.083 9.9 12 15.8 101990 87
2001-08-21 07:09:29 51°12.951 2°50.049 9.3 14 15.8 101990 87
2001-08-21 07:09:33 51°12.943 2°50.025 10 11 15.8 101990 87
2001-08-21 07:09:37 51°12.936 2°50.002 10.5 15 15.8 101990 87
2001-08-21 07:09:43 51°12.924 2°49.967 10.3 14 15.8 101990 87
2001-08-21 07:09:49 51°12.913 2°49.932 9.6 12 15.8 101990 87
2001-08-21 07:09:53 51°12.905 2°49.908 10.4 15 15.8 101990 87
2001-08-21 07:09:59 51°12.893 2°49.874 10.4 18 15.8 101990 87
2001-08-21 07:10:03 51°12.885 2°49.85 10.4 15 15.8 101990 88
2001-08-21 07:10:09 51°12.873 2°49.816 10.6 15 15.8 101990 88
2001-08-21 07:10:13 51°12.864 2°49.793 10 15 15.8 101990 88
2001-08-21 07:10:19 51°12.852 2°49.759 10.4 16 15.8 101990 88
2001-08-21 07:10:23 51°12.844 2°49.736 10.4 15 15.8 101990 88
2001-08-21 07:10:29 51°12.831 2°49.701 10.3 16 15.8 101990 88
2001-08-21 07:10:33 51°12.823 2°49.678 10.4 12 15.8 101990 88
2001-08-21 07:10:39 51°12.811 2°49.644 9.5 18 15.8 101990 88
2001-08-21 07:10:43 51°12.803 2°49.621 9.5 19 15.8 101990 87
2001-08-21 07:10:49 51°12.791 2°49.586 10.3 17 15.8 101990 87
2001-08-21 07:10:53 51°12.783 2°49.563 10.1 17 15.8 101990 87
2001-08-21 07:10:57 51°12.774 2°49.541 10.5 12 15.8 101990 87
2001-08-21 07:11:03 51°12.762 2°49.506 10.2 15 15.8 101990 87
2001-08-21 07:11:09 51°12.75 2°49.472 10 16 15.8 101990 87
2001-08-21 07:11:13 51°12.742 2°49.449 9.9 16 15.8 101990 87
2001-08-21 07:11:19 51°12.73 2°49.414 10.1 16 15.8 101990 87
2001-08-21 07:11:23 51°12.722 2°49.391 10.3 14 15.8 101990 87
2001-08-21 07:11:29 51°12.711 2°49.355 9.1 15 15.8 101990 87
2001-08-21 07:11:33 51°12.703 2°49.332 8.5 16 15.7 101990 87
2001-08-21 07:11:39 51°12.691 2°49.297 10.2 18 15.7 101990 87
2001-08-21 07:11:43 51°12.684 2°49.273 9.9 16 15.8 101990 87
2001-08-21 07:11:49 51°12.672 2°49.239 10.4 13 15.8 101990 87
2001-08-21 07:11:53 51°12.663 2°49.216 10.2 17 15.8 101990 87
2001-08-21 07:11:57 51°12.655 2°49.193 10.1 14 15.8 101990 87
2001-08-21 07:12:03 51°12.642 2°49.159 10.1 17 15.7 101990 87
2001-08-21 07:12:07 51°12.633 2°49.137 9.8 14 15.7 101990 87
2001-08-21 07:12:13 51°12.62 2°49.103 9.8 15 15.8 101990 87
2001-08-21 07:12:19 51°12.608 2°49.069 10.2 16 15.8 101990 87
2001-08-21 07:12:23 51°12.599 2°49.047 9.7 15 15.7 101990 87
2001-08-21 07:12:29 51°12.588 2°49.012 9.8 18 15.7 101990 87
2001-08-21 07:12:33 51°12.58 2°48.989 10 16 15.7 101980 87
2001-08-21 07:12:39 51°12.568 2°48.954 9.6 16 15.7 101980 87
2001-08-21 07:12:43 51°12.561 2°48.93 9 17 15.7 101990 87
2001-08-21 07:12:49 51°12.55 2°48.895 10.1 15 15.7 101990 87
2001-08-21 07:12:53 51°12.543 2°48.872 9.9 17 15.7 101990 87
2001-08-21 07:12:59 51°12.532 2°48.836 10.2 16 15.7 101990 87
2001-08-21 07:13:03 51°12.524 2°48.813 10.3 19 15.7 101990 87
2001-08-21 07:13:09 51°12.513 2°48.778 9.8 17 15.7 101990 87
2001-08-21 07:13:13 51°12.505 2°48.755 9.8 20 15.7 101990 87
2001-08-21 07:13:19 51°12.493 2°48.72 9.5 16 15.7 101990 87
2001-08-21 07:13:23 51°12.485 2°48.697 9.3 14 15.7 101990 87
2001-08-21 07:13:29 51°12.474 2°48.662 8.8 14 15.7 101990 87
2001-08-21 07:13:33 51°12.466 2°48.639 9.4 15 15.7 101990 87
2001-08-21 07:13:39 51°12.454 2°48.604 9.2 20 15.7 101990 87
2001-08-21 07:13:43 51°12.447 2°48.581 9.1 18 15.7 101990 87
2001-08-21 07:13:49 51°12.436 2°48.546 9.8 19 15.7 101990 87
2001-08-21 07:13:53 51°12.429 2°48.522 10.2 13 15.7 101990 87
2001-08-21 07:13:59 51°12.418 2°48.487 9.9 19 15.7 101990 87
2001-08-21 07:14:03 51°12.411 2°48.464 10.5 16 15.7 101990 87
2001-08-21 07:14:09 51°12.4 2°48.429 10.2 18 15.7 101990 87
2001-08-21 07:14:13 51°12.392 2°48.406 9.6 17 15.7 101990 87
2001-08-21 07:14:17 51°12.385 2°48.382 9.5 22 15.7 101990 87
2001-08-21 07:14:23 51°12.374 2°48.347 10.8 14 15.7 101990 86
2001-08-21 07:14:29 51°12.364 2°48.312 9.7 15 15.7 101990 86
2001-08-21 07:14:33 51°12.356 2°48.287 9.6 16 15.7 101990 86
2001-08-21 07:14:39 51°12.345 2°48.251 8.6 21 15.7 101990 86
2001-08-21 07:14:43 51°12.339 2°48.227 8.8 20 15.7 101980 86
2001-08-21 07:14:47 51°12.332 2°48.203 9.3 15 15.7 101980 86
2001-08-21 07:14:53 51°12.321 2°48.167 9.6 13 15.7 101980 86
2001-08-21 07:14:59 51°12.311 2°48.131 9.4 12 15.7 101980 86
2001-08-21 07:15:03 51°12.304 2°48.108 9.9 11 15.7 101990 86
2001-08-21 07:15:09 51°12.293 2°48.072 9.5 16 15.7 101990 86
2001-08-21 07:15:13 51°12.286 2°48.048 9.5 17 15.7 101980 86
2001-08-21 07:15:17 51°12.278 2°48.025 8.7 18 15.7 101980 86
2001-08-21 07:15:23 51°12.267 2°47.989 10 17 15.7 101980 86
2001-08-21 07:15:29 51°12.256 2°47.954 9.9 18 15.7 101980 86
2001-08-21 07:15:33 51°12.249 2°47.93 9.8 17 15.7 101980 86
2001-08-21 07:15:39 51°12.239 2°47.894 9.5 16 15.7 101980 86
2001-08-21 07:15:43 51°12.233 2°47.87 10.5 17 15.7 101980 86
2001-08-21 07:15:49 51°12.223 2°47.834 9.2 17 15.7 101980 86
2001-08-21 07:15:53 51°12.217 2°47.81 9.4 18 15.7 101980 86
2001-08-21 07:15:59 51°12.208 2°47.773 9.2 11 15.7 101980 86
2001-08-21 07:16:03 51°12.201 2°47.749 9.3 13 15.7 101980 87
2001-08-21 07:16:07 51°12.194 2°47.726 8.9 14 15.7 101980 87
2001-08-21 07:16:13 51°12.183 2°47.691 9.2 14 15.7 101990 87
2001-08-21 07:16:19 51°12.171 2°47.655 9.6 16 15.7 101990 87
2001-08-21 07:16:23 51°12.164 2°47.632 9.9 13 15.7 101980 87
2001-08-21 07:16:27 51°12.157 2°47.609 4.4 11 15.7 101980 87
2001-08-21 07:16:33 51°12.145 2°47.574 9.3 14 15.8 101990 87
2001-08-21 07:16:39 51°12.134 2°47.539 9.3 9 15.8 101990 87
2001-08-21 07:16:43 51°12.127 2°47.516 8.9 13 15.8 101980 87
2001-08-21 07:16:49 51°12.116 2°47.48 9.1 13 15.8 101980 87
2001-08-21 07:16:53 51°12.108 2°47.457 9 9 15.7 101990 87
2001-08-21 07:16:59 51°12.097 2°47.421 9.3 9 15.7 101990 87
2001-08-21 07:17:03 51°12.09 2°47.398 9.8 14 15.8 101980 87
2001-08-21 07:17:07 51°12.083 2°47.375 9.3 13 15.8 101980 87
2001-08-21 07:17:13 51°12.072 2°47.339 9.3 14 15.8 101990 87
2001-08-21 07:17:17 51°12.065 2°47.315 9.7 11 15.8 101990 87
2001-08-21 07:17:23 51°12.054 2°47.28 9.4 10 15.8 101990 87
2001-08-21 07:17:29 51°12.045 2°47.243 9.4 14 15.8 101990 87
2001-08-21 07:17:33 51°12.038 2°47.219 9.8 16 15.8 101980 88
2001-08-21 07:17:39 51°12.029 2°47.183 9.3 16 15.8 101980 88
2001-08-21 07:17:43 51°12.023 2°47.158 9.2 16 15.8 101980 88
2001-08-21 07:17:49 51°12.014 2°47.122 9.4 14 15.8 101980 88
2001-08-21 07:17:53 51°12.008 2°47.097 9.2 13 15.9 101980 88
2001-08-21 07:17:59 51°11.998 2°47.061 9.4 17 15.9 101980 88
2001-08-21 07:18:03 51°11.991 2°47.037 10.1 14 15.9 101990 88
2001-08-21 07:18:09 51°11.982 2°47.001 9.9 19 15.9 101990 88
2001-08-21 07:18:13 51°11.975 2°46.976 9.6 16 15.9 101980 87
2001-08-21 07:18:19 51°11.966 2°46.94 10.4 9 15.9 101980 87
2001-08-21 07:18:23 51°11.959 2°46.916 10.1 15 15.9 101980 88
2001-08-21 07:18:29 51°11.95 2°46.879 9.4 18 15.9 101980 88
2001-08-21 07:18:33 51°11.944 2°46.855 9.1 20 15.9 101980 88
2001-08-21 07:18:39 51°11.934 2°46.818 8.9 18 15.9 101980 88
2001-08-21 07:18:43 51°11.927 2°46.794 9.6 18 15.9 101980 88
2001-08-21 07:18:49 51°11.918 2°46.758 9.3 12 15.9 101980 88
2001-08-21 07:18:53 51°11.911 2°46.734 9.6 13 15.9 101980 87
2001-08-21 07:18:59 51°11.901 2°46.698 10 11 15.9 101980 87
2001-08-21 07:19:03 51°11.894 2°46.674 8.5 14 15.9 101980 87
2001-08-21 07:19:09 51°11.883 2°46.638 9.1 16 15.9 101980 87
2001-08-21 07:19:13 51°11.876 2°46.614 9.8 12 15.9 101980 87
2001-08-21 07:19:19 51°11.865 2°46.578 9.7 14 15.9 101980 87
2001-08-21 07:19:23 51°11.858 2°46.555 9.4 13 15.9 101980 88
2001-08-21 07:19:29 51°11.848 2°46.519 9.1 16 15.9 101980 88
2001-08-21 07:19:33 51°11.841 2°46.495 9.3 13 15.9 101980 88
2001-08-21 07:19:39 51°11.83 2°46.459 9.3 15 15.9 101980 88
2001-08-21 07:19:43 51°11.824 2°46.435 9.3 11 15.9 101980 88
2001-08-21 07:19:49 51°11.814 2°46.399 8.9 12 15.9 101980 88
2001-08-21 07:19:53 51°11.807 2°46.375 9.6 12 15.9 101980 88
2001-08-21 07:19:59 51°11.796 2°46.338 9.5 15 15.9 101980 88
2001-08-21 07:20:03 51°11.789 2°46.315 9.2 13 15.9 101980 88
2001-08-21 07:20:09 51°11.778 2°46.279 9.1 16 15.9 101980 88
2001-08-21 07:20:13 51°11.771 2°46.256 9.4 17 15.9 101980 87
2001-08-21 07:20:19 51°11.76 2°46.22 8.2 12 15.9 101980 87
2001-08-21 07:20:23 51°11.753 2°46.196 8.2 13 15.9 101980 87
2001-08-21 07:20:29 51°11.742 2°46.16 9.4 15 15.9 101980 87
2001-08-21 07:20:33 51°11.735 2°46.137 8.9 13 15.9 101980 87
2001-08-21 07:20:39 51°11.725 2°46.101 8.2 12 15.9 101980 87
2001-08-21 07:20:43 51°11.718 2°46.077 8.5 10 15.9 101980 87
2001-08-21 07:20:47 51°11.711 2°46.053 7.9 12 15.9 101980 87
2001-08-21 07:20:53 51°11.701 2°46.017 8.2 10 15.9 101980 87
2001-08-21 07:20:59 51°11.691 2°45.98 8 11 15.9 101980 87
2001-08-21 07:21:03 51°11.685 2°45.956 8.2 7 15.9 101980 87
2001-08-21 07:21:07 51°11.678 2°45.932 8 11 15.9 101980 87
2001-08-21 07:21:13 51°11.668 2°45.896 8.6 11 15.9 101980 87
2001-08-21 07:21:17 51°11.661 2°45.872 8.8 13 15.9 101980 87
2001-08-21 07:21:23 51°11.651 2°45.835 8 7 15.9 101980 87
2001-08-21 07:21:27 51°11.645 2°45.811 8.4 10 15.9 101980 87
2001-08-21 07:21:33 51°11.636 2°45.775 7.6 6 15.9 101980 87
2001-08-21 07:21:39 51°11.626 2°45.738 8.1 16 15.9 101980 87
2001-08-21 07:21:43 51°11.62 2°45.714 7.8 12 15.9 101980 87
2001-08-21 07:21:47 51°11.614 2°45.69 7.9 11 15.9 101980 87
2001-08-21 07:21:53 51°11.603 2°45.654 8.1 11 15.9 101980 87
2001-08-21 07:21:59 51°11.593 2°45.618 8.4 15 15.9 101980 87
2001-08-21 07:22:03 51°11.587 2°45.594 7.7 12 15.9 101980 87
2001-08-21 07:22:09 51°11.578 2°45.557 8.7 12 15.9 101980 87
2001-08-21 07:22:13 51°11.571 2°45.533 8.3 12 15.9 101980 87
2001-08-21 07:22:17 51°11.566 2°45.508 8.1 12 15.9 101980 87
2001-08-21 07:22:23 51°11.556 2°45.472 7.6 15 15.9 101980 87
2001-08-21 07:22:29 51°11.547 2°45.435 8.2 10 15.9 101980 87
2001-08-21 07:22:33 51°11.541 2°45.411 7.8 14 15.9 101980 87
2001-08-21 07:22:39 51°11.531 2°45.374 7.8 13 15.9 101980 87
2001-08-21 07:22:43 51°11.525 2°45.35 7.8 12 15.9 101980 87
2001-08-21 07:22:49 51°11.515 2°45.314 8.3 14 15.9 101980 87
2001-08-21 07:22:53 51°11.508 2°45.29 7.9 14 15.9 101980 87
2001-08-21 07:22:59 51°11.499 2°45.254 8.7 12 15.9 101980 87
2001-08-21 07:23:03 51°11.492 2°45.229 8.2 13 15.9 101980 87
2001-08-21 07:23:09 51°11.482 2°45.193 7.2 12 15.9 101980 87
2001-08-21 07:23:13 51°11.475 2°45.169 7.2 9 15.9 101980 87
2001-08-21 07:23:19 51°11.466 2°45.133 8 10 15.9 101980 87
2001-08-21 07:23:23 51°11.459 2°45.109 8.3 12 16 101980 86
2001-08-21 07:23:27 51°11.453 2°45.084 8.6 12 16 101980 86
2001-08-21 07:23:33 51°11.443 2°45.048 8.5 7 16 101980 87
2001-08-21 07:23:39 51°11.433 2°45.012 7.9 12 16 101980 87
2001-08-21 07:23:43 51°11.426 2°44.988 8.3 14 16 101980 87
2001-08-21 07:23:49 51°11.415 2°44.952 7.2 8 16 101980 87
2001-08-21 07:23:53 51°11.409 2°44.928 8.1 14 16 101980 87
2001-08-21 07:23:59 51°11.398 2°44.892 8.8 11 16 101980 87
2001-08-21 07:24:03 51°11.392 2°44.868 7.3 10 16 101980 87
2001-08-21 07:24:09 51°11.382 2°44.832 8.4 12 16 101980 87
2001-08-21 07:24:13 51°11.376 2°44.808 8.1 10 16 101980 87
2001-08-21 07:24:17 51°11.37 2°44.784 8.3 10 16 101980 87
2001-08-21 07:24:23 51°11.361 2°44.747 8.1 6 16 101980 87
2001-08-21 07:24:29 51°11.351 2°44.71 8.6 14 16 101980 87
2001-08-21 07:24:33 51°11.345 2°44.686 7.9 13 16 101980 87
2001-08-21 07:24:39 51°11.336 2°44.65 7.6 10 16 101980 87
2001-08-21 07:24:43 51°11.329 2°44.625 7.6 9 16 101980 87
2001-08-21 07:24:49 51°11.32 2°44.589 7.9 9 16 101980 87
2001-08-21 07:24:53 51°11.313 2°44.565 7.4 6 16.1 101980 86
2001-08-21 07:24:59 51°11.304 2°44.529 7.9 11 16.1 101980 86
2001-08-21 07:25:03 51°11.297 2°44.504 8.1 12 16.1 101980 86
2001-08-21 07:25:09 51°11.288 2°44.468 7.8 14 16.1 101980 86
2001-08-21 07:25:13 51°11.281 2°44.444 8.2 9 16.1 101980 86
2001-08-21 07:25:17 51°11.275 2°44.42 9.2 8 16.1 101980 86
2001-08-21 07:25:23 51°11.265 2°44.384 8.5 9 16.1 101980 86
2001-08-21 07:25:27 51°11.259 2°44.359 8.9 11 16.1 101980 86
2001-08-21 07:25:33 51°11.249 2°44.323 9.1 16 16.1 101980 86
2001-08-21 07:25:39 51°11.24 2°44.286 9 11 16.1 101980 86
2001-08-21 07:25:43 51°11.234 2°44.262 8.6 11 16.1 101980 86
2001-08-21 07:25:47 51°11.228 2°44.238 9.2 11 16.1 101980 86
2001-08-21 07:25:53 51°11.22 2°44.2 8.9 11 16.1 101980 86
2001-08-21 07:25:59 51°11.211 2°44.163 9.2 11 16.1 101980 86
2001-08-21 07:26:03 51°11.205 2°44.139 9.4 9 16.1 101980 86
2001-08-21 07:26:09 51°11.197 2°44.102 9.5 14 16.1 101980 86
2001-08-21 07:26:13 51°11.191 2°44.077 8.7 13 16.1 101980 85
2001-08-21 07:26:19 51°11.183 2°44.04 9 11 16.1 101980 85
2001-08-21 07:26:23 51°11.177 2°44.016 9.3 14 16.1 101980 86
2001-08-21 07:26:27 51°11.171 2°43.991 9 13 16.1 101980 86
2001-08-21 07:26:33 51°11.162 2°43.955 9.5 10 16.1 101980 86
2001-08-21 07:26:39 51°11.153 2°43.918 9 11 16.1 101980 86
2001-08-21 07:26:43 51°11.147 2°43.894 8.8 11 16.1 101980 86
2001-08-21 07:26:49 51°11.138 2°43.857 9.3 13 16.1 101980 86
2001-08-21 07:26:53 51°11.132 2°43.832 8.9 15 16.1 101980 86
2001-08-21 07:26:59 51°11.124 2°43.796 9.5 13 16.1 101980 86
2001-08-21 07:27:03 51°11.118 2°43.771 9.7 10 16.1 101980 86
2001-08-21 07:27:07 51°11.113 2°43.746 8.8 12 16.1 101980 86
2001-08-21 07:27:13 51°11.106 2°43.709 8.2 10 16.2 101980 86
2001-08-21 07:27:19 51°11.098 2°43.671 8.8 11 16.2 101980 86
2001-08-21 07:27:23 51°11.093 2°43.646 9 10 16.2 101980 86
2001-08-21 07:27:29 51°11.086 2°43.609 8.6 12 16.2 101980 86
2001-08-21 07:27:33 51°11.081 2°43.584 8.7 11 16.2 101980 86
2001-08-21 07:27:39 51°11.074 2°43.546 8.3 13 16.2 101980 86
2001-08-21 07:27:43 51°11.069 2°43.521 9.2 14 16.2 101980 86
2001-08-21 07:27:49 51°11.062 2°43.484 8.9 11 16.2 101980 86
2001-08-21 07:27:53 51°11.057 2°43.458 8.3 13 16.2 101980 86
2001-08-21 07:27:59 51°11.05 2°43.421 8.9 13 16.2 101980 86
2001-08-21 07:28:03 51°11.045 2°43.396 9.2 11 16.2 101980 85
2001-08-21 07:28:09 51°11.038 2°43.358 8.2 13 16.2 101980 85
2001-08-21 07:28:13 51°11.034 2°43.333 9.1 16 16.2 101980 85
2001-08-21 07:28:19 51°11.026 2°43.295 8.5 16 16.2 101980 85
2001-08-21 07:28:23 51°11.022 2°43.27 8.4 15 16.2 101980 86
2001-08-21 07:28:29 51°11.014 2°43.233 8.4 15 16.2 101980 86
2001-08-21 07:28:33 51°11.009 2°43.208 8.9 12 16.2 101990 85
2001-08-21 07:28:39 51°11.001 2°43.171 8.2 13 16.2 101990 85
2001-08-21 07:28:43 51°10.996 2°43.146 8.3 11 16.2 101980 85
2001-08-21 07:28:49 51°10.988 2°43.109 9.3 17 16.2 101980 85
2001-08-21 07:28:53 51°10.983 2°43.084 8.7 14 16.2 101990 85
2001-08-21 07:28:59 51°10.975 2°43.047 8.5 18 16.2 101990 85
2001-08-21 07:29:03 51°10.97 2°43.022 9 19 16.2 101980 85
2001-08-21 07:29:09 51°10.962 2°42.985 8.8 20 16.2 101980 85
2001-08-21 07:29:13 51°10.956 2°42.96 8.8 13 16.2 101990 85
2001-08-21 07:29:19 51°10.948 2°42.923 8.2 17 16.2 101990 85
2001-08-21 07:29:23 51°10.943 2°42.898 8.1 12 16.2 101990 85
2001-08-21 07:29:29 51°10.935 2°42.861 7.8 11 16.2 101990 85
2001-08-21 07:29:33 51°10.929 2°42.837 8.1 12 16.2 101990 85
2001-08-21 07:29:39 51°10.92 2°42.8 8.3 13 16.2 101990 85
2001-08-21 07:29:43 51°10.914 2°42.776 8.1 12 16.1 101990 85
2001-08-21 07:29:49 51°10.905 2°42.739 8.3 11 16.1 101990 85
2001-08-21 07:29:53 51°10.9 2°42.714 8.3 13 16.2 101980 85
2001-08-21 07:29:59 51°10.892 2°42.678 8.7 13 16.2 101980 85
2001-08-21 07:30:03 51°10.887 2°42.653 8.6 12 16.2 101990 86
2001-08-21 07:30:09 51°10.878 2°42.617 9.3 11 16.2 101990 86
2001-08-21 07:30:13 51°10.873 2°42.592 8.9 15 16.2 101980 86
2001-08-21 07:30:19 51°10.865 2°42.555 9.1 13 16.2 101980 86
2001-08-21 07:30:23 51°10.859 2°42.531 9.2 11 16.2 101990 86
2001-08-21 07:30:27 51°10.854 2°42.506 8.5 12 16.2 101990 86
2001-08-21 07:30:33 51°10.845 2°42.47 7.9 9 16.2 101980 86
2001-08-21 07:30:39 51°10.837 2°42.432 7.3 9 16.2 101980 86
2001-08-21 07:30:43 51°10.832 2°42.408 7.6 12 16.2 101980 86
2001-08-21 07:30:49 51°10.824 2°42.37 7.8 11 16.2 101980 86
2001-08-21 07:30:53 51°10.819 2°42.345 8.1 11 16.2 101980 86
2001-08-21 07:30:59 51°10.811 2°42.309 8.5 12 16.2 101980 86
2001-08-21 07:31:03 51°10.805 2°42.284 8 12 16.2 101980 86
2001-08-21 07:31:09 51°10.796 2°42.247 8.7 13 16.2 101980 86
2001-08-21 07:31:13 51°10.79 2°42.223 9.3 10 16.2 101990 86
2001-08-21 07:31:19 51°10.782 2°42.186 9.3 17 16.2 101990 86
2001-08-21 07:31:23 51°10.775 2°42.162 9.3 13 16.2 101990 86
2001-08-21 07:31:29 51°10.766 2°42.125 9.6 11 16.2 101990 86
2001-08-21 07:31:33 51°10.76 2°42.101 9.8 11 16.2 101980 86
2001-08-21 07:31:39 51°10.751 2°42.064 9.6 13 16.2 101980 86
2001-08-21 07:31:43 51°10.746 2°42.04 9.5 15 16.2 101980 86
2001-08-21 07:31:49 51°10.737 2°42.003 9.7 16 16.2 101980 86
2001-08-21 07:31:53 51°10.731 2°41.979 9.5 14 16.2 101980 86
2001-08-21 07:31:59 51°10.722 2°41.942 9.7 15 16.2 101980 86
2001-08-21 07:32:03 51°10.716 2°41.917 10.1 14 16.2 101980 86
2001-08-21 07:32:07 51°10.71 2°41.893 9.9 19 16.2 101980 86
2001-08-21 07:32:13 51°10.701 2°41.856 9.9 18 16.3 101980 86
2001-08-21 07:32:19 51°10.692 2°41.82 9.6 15 16.3 101980 86
2001-08-21 07:32:23 51°10.686 2°41.796 10.2 15 16.2 101980 86
2001-08-21 07:32:29 51°10.677 2°41.76 9.9 16 16.2 101980 86
2001-08-21 07:32:33 51°10.671 2°41.736 9.3 14 16.2 101980 86
2001-08-21 07:32:39 51°10.661 2°41.7 9.2 13 16.2 101980 86
2001-08-21 07:32:43 51°10.655 2°41.675 9.3 11 16.3 101980 86
2001-08-21 07:32:47 51°10.649 2°41.651 9.3 12 16.3 101980 86
2001-08-21 07:32:53 51°10.639 2°41.615 9.2 11 16.2 101980 86
2001-08-21 07:32:59 51°10.63 2°41.579 9.2 15 16.2 101980 86
2001-08-21 07:33:03 51°10.624 2°41.555 9.4 16 16.3 101980 86
2001-08-21 07:33:09 51°10.615 2°41.518 9.5 18 16.3 101980 86
2001-08-21 07:33:13 51°10.609 2°41.494 9.5 14 16.3 101980 86
2001-08-21 07:33:19 51°10.6 2°41.457 8.9 17 16.3 101980 86
2001-08-21 07:33:23 51°10.595 2°41.433 9.2 13 16.3 101980 86
2001-08-21 07:33:29 51°10.586 2°41.396 8.8 16 16.3 101980 86
2001-08-21 07:33:33 51°10.581 2°41.371 8.8 16 16.3 101980 86
2001-08-21 07:33:39 51°10.572 2°41.335 8 15 16.3 101980 86
2001-08-21 07:33:43 51°10.566 2°41.31 8.7 18 16.3 101980 86
2001-08-21 07:33:49 51°10.558 2°41.274 7.8 16 16.3 101980 86
2001-08-21 07:33:53 51°10.552 2°41.249 8.4 11 16.3 101980 86
2001-08-21 07:33:59 51°10.543 2°41.213 8.6 14 16.3 101980 86
2001-08-21 07:34:03 51°10.537 2°41.189 8.1 11 16.3 101980 86
2001-08-21 07:34:09 51°10.528 2°41.152 8.7 12 16.3 101980 86
2001-08-21 07:34:13 51°10.521 2°41.128 9.2 7 16.3 101980 86
2001-08-21 07:34:19 51°10.513 2°41.091 9.2 15 16.3 101980 86
2001-08-21 07:34:23 51°10.507 2°41.067 9.2 12 16.3 101980 87
2001-08-21 07:34:29 51°10.498 2°41.03 8.9 13 16.3 101980 87
2001-08-21 07:34:33 51°10.493 2°41.006 9.2 11 16.4 101990 87
2001-08-21 07:34:39 51°10.484 2°40.969 9.2 13 16.4 101990 87
2001-08-21 07:34:43 51°10.478 2°40.945 9.3 11 16.4 101990 87
2001-08-21 07:34:49 51°10.469 2°40.908 9.9 11 16.4 101990 87
2001-08-21 07:34:53 51°10.463 2°40.884 9.2 12 16.4 101980 87
2001-08-21 07:34:59 51°10.454 2°40.847 9.4 11 16.4 101980 87
2001-08-21 07:35:03 51°10.448 2°40.823 9.4 8 16.4 101980 87
2001-08-21 07:35:09 51°10.438 2°40.786 9.1 7 16.4 101980 87
2001-08-21 07:35:13 51°10.432 2°40.762 9.1 6 16.4 101980 86
2001-08-21 07:35:19 51°10.423 2°40.726 9.8 7 16.4 101980 86
2001-08-21 07:35:23 51°10.417 2°40.701 9.8 9 16.4 101980 86
2001-08-21 07:35:29 51°10.408 2°40.665 10.3 12 16.4 101980 86
2001-08-21 07:35:33 51°10.401 2°40.641 10.4 11 16.4 101980 86
2001-08-21 07:35:39 51°10.392 2°40.605 10.4 14 16.4 101980 86
2001-08-21 07:35:43 51°10.385 2°40.581 10.2 12 16.4 101980 87
2001-08-21 07:35:47 51°10.379 2°40.557 10.3 13 16.4 101980 87
2001-08-21 07:35:53 51°10.369 2°40.52 10.2 9 16.4 101980 86
2001-08-21 07:35:59 51°10.36 2°40.484 9.8 12 16.4 101980 86
2001-08-21 07:36:03 51°10.354 2°40.46 9.8 11 16.4 101970 86
2001-08-21 07:36:09 51°10.345 2°40.423 9.7 10 16.4 101970 86
2001-08-21 07:36:13 51°10.339 2°40.399 10.7 11 16.4 101970 86
2001-08-21 07:36:17 51°10.333 2°40.375 10.3 10 16.4 101970 86
2001-08-21 07:36:23 51°10.325 2°40.338 10.2 14 16.4 101980 86
2001-08-21 07:36:29 51°10.316 2°40.302 9.5 6 16.4 101980 86
2001-08-21 07:36:33 51°10.31 2°40.277 10.1 9 16.4 101970 86
2001-08-21 07:36:39 51°10.301 2°40.241 9.8 12 16.4 101970 86
2001-08-21 07:36:43 51°10.295 2°40.216 10.8 11 16.5 101980 86
2001-08-21 07:36:47 51°10.289 2°40.192 10.9 12 16.5 101980 86
2001-08-21 07:36:53 51°10.28 2°40.156 10.9 12 16.5 101980 86
2001-08-21 07:36:59 51°10.271 2°40.119 10.4 12 16.5 101980 86
2001-08-21 07:37:03 51°10.265 2°40.095 10.1 12 16.5 101970 86
2001-08-21 07:37:09 51°10.256 2°40.058 11.1 12 16.5 101970 86
2001-08-21 07:37:13 51°10.25 2°40.034 10.4 12 16.5 101970 86
2001-08-21 07:37:19 51°10.241 2°39.998 10.6 13 16.5 101970 86
2001-08-21 07:37:23 51°10.235 2°39.973 10.6 11 16.5 101970 86
2001-08-21 07:37:27 51°10.229 2°39.949 10.6 9 16.5 101970 86
2001-08-21 07:37:33 51°10.219 2°39.913 10.8 10 16.5 101970 86
2001-08-21 07:37:37 51°10.213 2°39.889 10.9 12 16.5 101970 86
2001-08-21 07:37:43 51°10.203 2°39.853 10.3 14 16.5 101970 86
2001-08-21 07:37:49 51°10.194 2°39.817 10.1 10 16.5 101970 86
2001-08-21 07:37:53 51°10.187 2°39.793 10 13 16.5 101970 86
2001-08-21 07:37:59 51°10.178 2°39.757 10.1 10 16.5 101970 86
2001-08-21 07:38:03 51°10.172 2°39.733 10.3 11 16.5 101970 86
2001-08-21 07:38:09 51°10.163 2°39.696 10.1 14 16.5 101970 86
2001-08-21 07:38:13 51°10.157 2°39.672 10.5 12 16.5 101980 86
2001-08-21 07:38:19 51°10.149 2°39.635 10.3 12 16.5 101980 86
2001-08-21 07:38:23 51°10.143 2°39.611 10 10 16.5 101970 86
2001-08-21 07:38:29 51°10.134 2°39.574 10.6 10 16.5 101970 86
2001-08-21 07:38:33 51°10.129 2°39.549 10.1 13 16.5 101970 86
2001-08-21 07:38:37 51°10.123 2°39.525 9.8 11 16.5 101970 86
2001-08-21 07:38:43 51°10.114 2°39.489 9.9 11 16.5 101980 86
2001-08-21 07:38:49 51°10.104 2°39.452 10.1 12 16.5 101980 86
2001-08-21 07:38:53 51°10.098 2°39.428 9.7 12 16.5 101970 86
2001-08-21 07:38:59 51°10.089 2°39.392 10.3 12 16.5 101970 86
2001-08-21 07:39:03 51°10.083 2°39.367 10.6 14 16.5 101970 86
2001-08-21 07:39:09 51°10.074 2°39.331 10.7 13 16.5 101970 86
2001-08-21 07:39:13 51°10.068 2°39.306 10 13 16.6 101970 86
2001-08-21 07:39:19 51°10.059 2°39.27 10.4 15 16.6 101970 86
2001-08-21 07:39:23 51°10.053 2°39.245 9.9 7 16.6 101980 86
2001-08-21 07:39:29 51°10.045 2°39.209 9.7 11 16.6 101980 86
2001-08-21 07:39:33 51°10.039 2°39.184 9.8 7 16.6 101980 86
2001-08-21 07:39:39 51°10.03 2°39.148 10 13 16.6 101980 86
2001-08-21 07:39:43 51°10.023 2°39.124 9.7 11 16.5 101980 86
2001-08-21 07:39:49 51°10.014 2°39.087 10.7 10 16.5 101980 86
2001-08-21 07:39:53 51°10.008 2°39.063 10.6 12 16.6 101980 86
2001-08-21 07:39:59 51°9.999 2°39.027 10.5 10 16.6 101980 86
2001-08-21 07:40:03 51°9.993 2°39.003 9.9 12 16.6 101970 86
2001-08-21 07:40:09 51°9.984 2°38.966 9.8 8 16.6 101970 86
2001-08-21 07:40:13 51°9.978 2°38.942 9.4 9 16.6 101980 85
2001-08-21 07:40:19 51°9.968 2°38.906 9.7 8 16.6 101980 85
2001-08-21 07:40:23 51°9.962 2°38.882 9.7 12 16.6 101970 85
2001-08-21 07:40:29 51°9.953 2°38.846 10.7 11 16.6 101970 85
2001-08-21 07:40:33 51°9.947 2°38.821 10.1 10 16.6 101970 85
2001-08-21 07:40:39 51°9.937 2°38.785 10 12 16.6 101970 85
2001-08-21 07:40:43 51°9.931 2°38.761 10.6 15 16.6 101980 86
2001-08-21 07:40:49 51°9.922 2°38.725 10.2 11 16.6 101980 86
2001-08-21 07:40:53 51°9.915 2°38.701 10.3 11 16.6 101970 85
2001-08-21 07:40:59 51°9.906 2°38.665 10.5 11 16.6 101970 85
2001-08-21 07:41:03 51°9.9 2°38.64 9.6 11 16.7 101980 85
2001-08-21 07:41:09 51°9.891 2°38.604 10.4 11 16.7 101980 85
2001-08-21 07:41:13 51°9.884 2°38.58 10.2 8 16.7 101980 85
2001-08-21 07:41:19 51°9.875 2°38.544 10.3 12 16.7 101980 85
2001-08-21 07:41:23 51°9.869 2°38.519 9.6 11 16.7 101980 85
2001-08-21 07:41:29 51°9.859 2°38.483 10.8 9 16.7 101980 85
2001-08-21 07:41:33 51°9.853 2°38.459 9.9 7 16.7 101970 85
2001-08-21 07:41:39 51°9.844 2°38.423 10 8 16.7 101970 85
2001-08-21 07:41:43 51°9.838 2°38.398 9.9 9 16.7 101970 85
2001-08-21 07:41:49 51°9.829 2°38.362 9.9 10 16.7 101970 85
2001-08-21 07:41:53 51°9.823 2°38.337 10.8 10 16.7 101970 85
2001-08-21 07:41:59 51°9.814 2°38.301 9.4 6 16.7 101970 85
2001-08-21 07:42:03 51°9.808 2°38.276 10.7 7 16.7 101970 84
2001-08-21 07:42:09 51°9.8 2°38.24 10.9 9 16.7 101970 84